Terminal Aerodrome Forecast
Issued by NWS Louisville, KY

Home | Current Version | Previous Version | Text Only | Print | Product List | Glossary On
Versions: 1 2 3 4 5 6 7 8 9 10 11 12 13 14 15 16 17 18 19
000
FTUS43 KLMK 292100 AAA
TAFSDF
TAF AMD
KSDF 292107Z 2921/3024 30008KT 6SM HZ VCTS SCT040CB BKN250
      TEMPO 2923/3002 VRB15G25KT 2SM TSRA BKN025CB
     FM300200 32006KT 6SM HZ SCT025 BKN150
     FM300800 33004KT 4SM BR BKN025
     FM301100 35006KT P6SM FEW030=

USA.gov is the U.S. government's official web portal to all federal, state and local government web resources and services.